Wetterdaten vom Freitag, 23. Juli 2021

Temperatur Taupunkt Windchill Luftfeuchte Luftdruck Solarstrahlung Regen ET
(Verdunstung von Wasser)
Wind
Max 29.4 °C
16:15
17.4 °C
15:40
29.4 °C
16:15
92%
05:35
1014.8 hPa
00:05
1000 W/m²
12:55
11.6 km/h
16:25 km/h
Durchschnitt 20.7 °C 13.5 °C 20.7 °C 67% 1012.5 hPa 459 W/m² 0 mm 4.521 mm 2.5 km/h
Min 12 °C
05:30
10.5 °C
05:20
12 °C
05:50
39%
16:05
1008.7 hPa
19:35
0 km/h (Böe)
00:00 km/h
Zeit
00:00 16.3 °C 12.8 °C 16.3 °C 80% 1014.7 hPa 0 W/m² 0.0 mm 0.000 mm 0.0 km/h
00:05 16.3 °C 13.0 °C 16.3 °C 81% 1014.8 hPa 0 W/m² 0.0 mm 0.000 mm 0.0 km/h
00:10 16.2 °C 12.9 °C 16.2 °C 81% 1014.8 hPa 0 W/m² 0.0 mm 0.000 mm 0.0 km/h
00:15 16.1 °C 12.8 °C 16.1 °C 81% 1014.8 hPa 0 W/m² 0.0 mm 0.000 mm 0.0 km/h
00:20 16.1 °C 12.8 °C 16.1 °C 81% 1014.7 hPa 0 W/m² 0.0 mm 0.000 mm 0.0 km/h
00:25 15.9 °C 12.6 °C 15.9 °C 81% 1014.7 hPa 0 W/m² 0.0 mm 0.000 mm 0.0 km/h
00:30 15.8 °C 12.5 °C 15.8 °C 81% 1014.7 hPa 0 W/m² 0.0 mm 0.000 mm 0.4 km/h
00:35 15.7 °C 12.6 °C 15.7 °C 82% 1014.6 hPa 0 W/m² 0.0 mm 0.000 mm 1.1 km/h
00:40 15.6 °C 12.5 °C 15.6 °C 82% 1014.7 hPa 0 W/m² 0.0 mm 0.000 mm 0.8 km/h
00:45 15.5 °C 12.4 °C 15.5 °C 82% 1014.6 hPa 0 W/m² 0.0 mm 0.000 mm 1.6 km/h
00:50 15.4 °C 12.3 °C 15.4 °C 82% 1014.7 hPa 0 W/m² 0.0 mm 0.000 mm 1.0 km/h
00:55 15.4 °C 12.5 °C 15.4 °C 83% 1014.7 hPa 0 W/m² 0.0 mm 0.000 mm 0.2 km/h
01:00 15.3 °C 12.4 °C 15.3 °C 83% 1014.7 hPa 0 W/m² 0.0 mm 0.025 mm 1.0 km/h
01:05 15.3 °C 12.4 °C 15.3 °C 83% 1014.6 hPa 0 W/m² 0.0 mm 0.000 mm 3.6 km/h
01:10 15.2 °C 12.3 °C 15.2 °C 83% 1014.7 hPa 0 W/m² 0.0 mm 0.000 mm 0.2 km/h
01:15 15.2 °C 12.3 °C 15.2 °C 83% 1014.7 hPa 0 W/m² 0.0 mm 0.000 mm 0.0 km/h
01:20 15.1 °C 12.2 °C 15.1 °C 83% 1014.7 hPa 0 W/m² 0.0 mm 0.000 mm 0.6 km/h
01:25 15.0 °C 12.3 °C 15.0 °C 84% 1014.6 hPa 0 W/m² 0.0 mm 0.000 mm 0.6 km/h
01:30 14.9 °C 12.0 °C 14.9 °C 83% 1014.6 hPa 0 W/m² 0.0 mm 0.000 mm 0.1 km/h
01:35 14.8 °C 11.9 °C 14.8 °C 83% 1014.6 hPa 0 W/m² 0.0 mm 0.000 mm 0.0 km/h
01:40 14.7 °C 12.2 °C 14.7 °C 85% 1014.6 hPa 0 W/m² 0.0 mm 0.000 mm 0.0 km/h
01:45 14.6 °C 12.1 °C 14.6 °C 85% 1014.6 hPa 0 W/m² 0.0 mm 0.000 mm 0.2 km/h
01:50 14.6 °C 12.1 °C 14.6 °C 85% 1014.6 hPa 0 W/m² 0.0 mm 0.000 mm 0.4 km/h
01:55 14.5 °C 11.8 °C 14.5 °C 84% 1014.7 hPa 0 W/m² 0.0 mm 0.000 mm 0.0 km/h
02:00 14.4 °C 11.9 °C 14.4 °C 85% 1014.7 hPa 0 W/m² 0.0 mm 0.026 mm 0.0 km/h
02:05 14.4 °C 11.9 °C 14.4 °C 85% 1014.6 hPa 0 W/m² 0.0 mm 0.000 mm 0.0 km/h
02:10 14.3 °C 11.8 °C 14.3 °C 85% 1014.6 hPa 0 W/m² 0.0 mm 0.000 mm 0.0 km/h
02:15 14.3 °C 12.0 °C 14.3 °C 86% 1014.6 hPa 0 W/m² 0.0 mm 0.000 mm 0.1 km/h
02:20 14.2 °C 12.1 °C 14.2 °C 87% 1014.5 hPa 0 W/m² 0.0 mm 0.000 mm 0.4 km/h
02:25 14.1 °C 12.0 °C 14.1 °C 87% 1014.5 hPa 0 W/m² 0.0 mm 0.000 mm 1.2 km/h
02:30 14.1 °C 12.0 °C 14.1 °C 87% 1014.5 hPa 0 W/m² 0.0 mm 0.000 mm 0.5 km/h
02:35 14.0 °C 11.9 °C 14.0 °C 87% 1014.6 hPa 0 W/m² 0.0 mm 0.000 mm 0.0 km/h
02:40 14.0 °C 11.9 °C 14.0 °C 87% 1014.5 hPa 0 W/m² 0.0 mm 0.000 mm 0.0 km/h
02:45 13.9 °C 11.8 °C 13.9 °C 87% 1014.4 hPa 0 W/m² 0.0 mm 0.000 mm 0.0 km/h
02:50 13.8 °C 11.7 °C 13.8 °C 87% 1014.4 hPa 0 W/m² 0.0 mm 0.000 mm 0.0 km/h
02:55 13.7 °C 11.6 °C 13.7 °C 87% 1014.4 hPa 0 W/m² 0.0 mm 0.000 mm 0.0 km/h
03:00 13.6 °C 11.5 °C 13.6 °C 87% 1014.4 hPa 0 W/m² 0.0 mm 0.000 mm 0.6 km/h
03:05 13.6 °C 11.6 °C 13.6 °C 88% 1014.4 hPa 0 W/m² 0.0 mm 0.000 mm 0.9 km/h
03:10 13.6 °C 11.6 °C 13.6 °C 88% 1014.4 hPa 0 W/m² 0.0 mm 0.000 mm 1.2 km/h
03:15 13.6 °C 11.6 °C 13.6 °C 88% 1014.3 hPa 0 W/m² 0.0 mm 0.000 mm 0.8 km/h
03:20 13.5 °C 11.6 °C 13.5 °C 88% 1014.3 hPa 0 W/m² 0.0 mm 0.000 mm 0.0 km/h
03:25 13.4 °C 11.6 °C 13.4 °C 89% 1014.3 hPa 0 W/m² 0.0 mm 0.000 mm 0.5 km/h
03:30 13.4 °C 11.5 °C 13.4 °C 88% 1014.4 hPa 0 W/m² 0.0 mm 0.000 mm 1.0 km/h
03:35 13.3 °C 11.4 °C 13.3 °C 88% 1014.4 hPa 0 W/m² 0.0 mm 0.000 mm 0.5 km/h
03:40 13.2 °C 11.3 °C 13.2 °C 88% 1014.3 hPa 0 W/m² 0.0 mm 0.000 mm 0.0 km/h
03:45 13.2 °C 11.3 °C 13.2 °C 88% 1014.4 hPa 0 W/m² 0.0 mm 0.000 mm 0.0 km/h
03:50 13.1 °C 11.3 °C 13.1 °C 89% 1014.3 hPa 0 W/m² 0.0 mm 0.000 mm 0.0 km/h
03:55 13.1 °C 11.3 °C 13.1 °C 89% 1014.3 hPa 0 W/m² 0.0 mm 0.000 mm 0.0 km/h
04:00 13.1 °C 11.5 °C 13.1 °C 90% 1014.3 hPa 0 W/m² 0.0 mm 0.000 mm 1.3 km/h
04:05 13.1 °C 11.5 °C 13.1 °C 90% 1014.2 hPa 0 W/m² 0.0 mm 0.000 mm 1.0 km/h
04:10 13.1 °C 11.5 °C 13.1 °C 90% 1014.2 hPa 0 W/m² 0.0 mm 0.000 mm 0.4 km/h
04:15 13.1 °C 11.5 °C 13.1 °C 90% 1014.2 hPa 0 W/m² 0.0 mm 0.000 mm 1.4 km/h
04:20 13.0 °C 11.4 °C 13.0 °C 90% 1014.2 hPa 0 W/m² 0.0 mm 0.000 mm 0.7 km/h
04:25 12.9 °C 11.3 °C 12.9 °C 90% 1014.1 hPa 0 W/m² 0.0 mm 0.000 mm 0.1 km/h
04:30 12.9 °C 11.3 °C 12.9 °C 90% 1014.1 hPa 0 W/m² 0.0 mm 0.000 mm 0.0 km/h
04:35 12.8 °C 11.2 °C 12.8 °C 90% 1014.1 hPa 0 W/m² 0.0 mm 0.000 mm 0.3 km/h
04:40 12.7 °C 11.1 °C 12.7 °C 90% 1014.1 hPa 0 W/m² 0.0 mm 0.000 mm 2.2 km/h
04:45 12.6 °C 10.8 °C 12.6 °C 89% 1014.0 hPa 0 W/m² 0.0 mm 0.000 mm 0.2 km/h
04:50 12.4 °C 10.8 °C 12.4 °C 90% 1014.1 hPa 0 W/m² 0.0 mm 0.000 mm 1.5 km/h
04:55 12.4 °C 10.8 °C 12.4 °C 90% 1014.0 hPa 0 W/m² 0.0 mm 0.000 mm 0.5 km/h
05:00 12.3 °C 10.7 °C 12.3 °C 90% 1014.1 hPa 0 W/m² 0.0 mm 0.000 mm 0.0 km/h
05:05 12.3 °C 10.7 °C 12.3 °C 90% 1014.1 hPa 0 W/m² 0.0 mm 0.000 mm 0.3 km/h
05:10 12.3 °C 10.9 °C 12.3 °C 91% 1013.9 hPa 0 W/m² 0.0 mm 0.000 mm 0.0 km/h
05:15 12.2 °C 10.6 °C 12.2 °C 90% 1014.0 hPa 0 W/m² 0.0 mm 0.000 mm 0.0 km/h
05:20 12.1 °C 10.5 °C 12.1 °C 90% 1014.0 hPa 0 W/m² 0.0 mm 0.000 mm 0.0 km/h
05:25 12.1 °C 10.5 °C 12.1 °C 90% 1013.9 hPa 0 W/m² 0.0 mm 0.000 mm 0.0 km/h
05:30 12.1 °C 10.7 °C 12.1 °C 91% 1013.9 hPa 0 W/m² 0.0 mm 0.000 mm 0.0 km/h
05:35 12.1 °C 10.8 °C 12.1 °C 92% 1013.9 hPa 0 W/m² 0.0 mm 0.000 mm 0.9 km/h
05:40 12.1 °C 10.8 °C 12.1 °C 92% 1013.8 hPa 5 W/m² 0.0 mm 0.000 mm 0.0 km/h
05:45 12.1 °C 10.8 °C 12.1 °C 92% 1013.9 hPa 7 W/m² 0.0 mm 0.000 mm 0.6 km/h
05:50 12.0 °C 10.7 °C 12.0 °C 92% 1013.9 hPa 9 W/m² 0.0 mm 0.000 mm 1.5 km/h
05:55 12.0 °C 10.7 °C 12.0 °C 92% 1013.9 hPa 11 W/m² 0.0 mm 0.000 mm 1.1 km/h
06:00 12.1 °C 10.8 °C 12.1 °C 92% 1013.9 hPa 14 W/m² 0.0 mm 0.000 mm 0.1 km/h
06:05 12.1 °C 10.8 °C 12.1 °C 92% 1013.9 hPa 17 W/m² 0.0 mm 0.000 mm 0.0 km/h
06:10 12.1 °C 10.8 °C 12.1 °C 92% 1013.8 hPa 22 W/m² 0.0 mm 0.000 mm 0.0 km/h
06:15 12.1 °C 10.8 °C 12.1 °C 92% 1013.9 hPa 27 W/m² 0.0 mm 0.000 mm 0.9 km/h
06:20 12.1 °C 10.8 °C 12.1 °C 92% 1013.9 hPa 33 W/m² 0.0 mm 0.000 mm 0.0 km/h
06:25 12.2 °C 10.9 °C 12.2 °C 92% 1013.9 hPa 39 W/m² 0.0 mm 0.000 mm 0.0 km/h
06:30 12.3 °C 11.0 °C 12.3 °C 92% 1014.0 hPa 45 W/m² 0.0 mm 0.000 mm 0.0 km/h
06:35 12.4 °C 11.1 °C 12.4 °C 92% 1013.9 hPa 51 W/m² 0.0 mm 0.000 mm 0.0 km/h
06:40 12.5 °C 11.2 °C 12.5 °C 92% 1014.0 hPa 59 W/m² 0.0 mm 0.000 mm 0.0 km/h
06:45 12.7 °C 11.4 °C 12.7 °C 92% 1014.0 hPa 68 W/m² 0.0 mm 0.000 mm 0.0 km/h
06:50 12.8 °C 11.4 °C 12.8 °C 91% 1014.1 hPa 81 W/m² 0.0 mm 0.000 mm 0.0 km/h
06:55 13.1 °C 11.7 °C 13.1 °C 91% 1014.1 hPa 93 W/m² 0.0 mm 0.000 mm 0.0 km/h
07:00 13.4 °C 12.0 °C 13.4 °C 91% 1014.0 hPa 102 W/m² 0.0 mm 0.025 mm 0.0 km/h
07:05 13.8 °C 12.2 °C 13.8 °C 90% 1014.0 hPa 113 W/m² 0.0 mm 0.000 mm 0.0 km/h
07:10 14.2 °C 12.6 °C 14.2 °C 90% 1014.0 hPa 119 W/m² 0.0 mm 0.000 mm 0.0 km/h
07:15 14.5 °C 12.7 °C 14.5 °C 89% 1014.0 hPa 133 W/m² 0.0 mm 0.000 mm 0.0 km/h
07:20 14.8 °C 12.8 °C 14.8 °C 88% 1014.0 hPa 150 W/m² 0.0 mm 0.000 mm 0.0 km/h
07:25 15.1 °C 12.6 °C 15.1 °C 85% 1014.0 hPa 170 W/m² 0.0 mm 0.000 mm 0.0 km/h
07:30 15.3 °C 12.8 °C 15.3 °C 85% 1014.0 hPa 171 W/m² 0.0 mm 0.000 mm 0.0 km/h
07:35 15.4 °C 12.7 °C 15.4 °C 84% 1013.9 hPa 221 W/m² 0.0 mm 0.000 mm 0.9 km/h
07:40 15.5 °C 13.0 °C 15.5 °C 85% 1013.9 hPa 171 W/m² 0.0 mm 0.000 mm 2.2 km/h
07:45 15.5 °C 13.0 °C 15.5 °C 85% 1013.9 hPa 177 W/m² 0.0 mm 0.000 mm 3.6 km/h
07:50 15.6 °C 13.3 °C 15.6 °C 86% 1013.8 hPa 229 W/m² 0.0 mm 0.000 mm 3.3 km/h
07:55 15.7 °C 13.2 °C 15.7 °C 85% 1013.9 hPa 221 W/m² 0.0 mm 0.000 mm 2.0 km/h
08:00 16.0 °C 13.3 °C 16.0 °C 84% 1013.9 hPa 239 W/m² 0.0 mm 0.102 mm 1.5 km/h
08:05 16.2 °C 13.5 °C 16.2 °C 84% 1013.8 hPa 250 W/m² 0.0 mm 0.000 mm 3.2 km/h
08:10 16.3 °C 13.4 °C 16.3 °C 83% 1013.9 hPa 229 W/m² 0.0 mm 0.000 mm 4.9 km/h
08:15 16.4 °C 13.5 °C 16.4 °C 83% 1013.9 hPa 305 W/m² 0.0 mm 0.000 mm 3.5 km/h
08:20 16.8 °C 13.9 °C 16.8 °C 83% 1013.7 hPa 312 W/m² 0.0 mm 0.000 mm 2.7 km/h
08:25 17.1 °C 13.2 °C 17.1 °C 78% 1013.7 hPa 327 W/m² 0.0 mm 0.000 mm 3.8 km/h
08:30 17.3 °C 13.0 °C 17.3 °C 76% 1013.7 hPa 341 W/m² 0.0 mm 0.000 mm 1.0 km/h
08:35 17.7 °C 14.4 °C 17.7 °C 81% 1013.6 hPa 355 W/m² 0.0 mm 0.000 mm 0.4 km/h
08:40 18.3 °C 14.2 °C 18.3 °C 77% 1013.6 hPa 371 W/m² 0.0 mm 0.000 mm 2.5 km/h
08:45 18.7 °C 13.8 °C 18.7 °C 73% 1013.7 hPa 384 W/m² 0.0 mm 0.000 mm 3.5 km/h
08:50 18.9 °C 13.7 °C 18.9 °C 72% 1013.7 hPa 399 W/m² 0.0 mm 0.000 mm 3.2 km/h
08:55 19.1 °C 13.7 °C 19.1 °C 71% 1013.7 hPa 412 W/m² 0.0 mm 0.000 mm 2.0 km/h
09:00 19.4 °C 14.0 °C 19.4 °C 71% 1013.7 hPa 426 W/m² 0.0 mm 0.203 mm 0.5 km/h
09:05 19.8 °C 14.2 °C 19.8 °C 70% 1013.6 hPa 437 W/m² 0.0 mm 0.000 mm 2.2 km/h
09:10 19.9 °C 14.3 °C 19.9 °C 70% 1013.6 hPa 448 W/m² 0.0 mm 0.000 mm 3.7 km/h
09:15 20.3 °C 14.4 °C 20.3 °C 69% 1013.5 hPa 459 W/m² 0.0 mm 0.000 mm 2.0 km/h
09:20 20.5 °C 14.6 °C 20.5 °C 69% 1013.6 hPa 475 W/m² 0.0 mm 0.000 mm 1.4 km/h
09:25 20.6 °C 14.5 °C 20.6 °C 68% 1013.6 hPa 487 W/m² 0.0 mm 0.000 mm 4.2 km/h
09:30 20.8 °C 14.7 °C 20.8 °C 68% 1013.6 hPa 498 W/m² 0.0 mm 0.000 mm 2.7 km/h
09:35 20.9 °C 14.3 °C 20.9 °C 66% 1013.5 hPa 507 W/m² 0.0 mm 0.000 mm 1.3 km/h
09:40 21.2 °C 15.1 °C 21.2 °C 68% 1013.6 hPa 520 W/m² 0.0 mm 0.000 mm 1.9 km/h
09:45 21.6 °C 14.7 °C 21.6 °C 65% 1013.6 hPa 533 W/m² 0.0 mm 0.000 mm 1.8 km/h
09:50 22.0 °C 15.6 °C 22.0 °C 67% 1013.5 hPa 540 W/m² 0.0 mm 0.000 mm 0.3 km/h
09:55 22.3 °C 14.9 °C 22.3 °C 63% 1013.5 hPa 552 W/m² 0.0 mm 0.000 mm 0.8 km/h
10:00 22.6 °C 14.9 °C 22.6 °C 62% 1013.5 hPa 570 W/m² 0.0 mm 0.305 mm 2.4 km/h
10:05 22.6 °C 14.4 °C 22.6 °C 60% 1013.5 hPa 581 W/m² 0.0 mm 0.000 mm 5.5 km/h
10:10 22.7 °C 14.8 °C 22.7 °C 61% 1013.4 hPa 592 W/m² 0.0 mm 0.000 mm 3.0 km/h
10:15 22.6 °C 13.9 °C 22.6 °C 58% 1013.4 hPa 603 W/m² 0.0 mm 0.000 mm 5.6 km/h
10:20 22.5 °C 13.8 °C 22.3 °C 58% 1013.4 hPa 611 W/m² 0.0 mm 0.000 mm 7.0 km/h
10:25 22.4 °C 14.8 °C 22.4 °C 62% 1013.4 hPa 624 W/m² 0.0 mm 0.000 mm 4.7 km/h
10:30 22.7 °C 14.5 °C 22.7 °C 60% 1013.3 hPa 633 W/m² 0.0 mm 0.000 mm 2.2 km/h
10:35 22.8 °C 15.4 °C 22.8 °C 63% 1013.2 hPa 642 W/m² 0.0 mm 0.000 mm 5.1 km/h
10:40 22.9 °C 15.2 °C 22.6 °C 62% 1013.2 hPa 649 W/m² 0.0 mm 0.000 mm 7.4 km/h
10:45 23.2 °C 16.0 °C 23.2 °C 64% 1013.2 hPa 658 W/m² 0.0 mm 0.000 mm 2.9 km/h
10:50 23.8 °C 16.3 °C 23.8 °C 63% 1013.2 hPa 667 W/m² 0.0 mm 0.000 mm 3.1 km/h
10:55 24.2 °C 16.7 °C 24.2 °C 63% 1013.2 hPa 677 W/m² 0.0 mm 0.000 mm 1.7 km/h
11:00 24.6 °C 15.8 °C 24.6 °C 58% 1013.2 hPa 685 W/m² 0.0 mm 0.406 mm 2.5 km/h
11:05 25.1 °C 16.2 °C 25.1 °C 58% 1013.1 hPa 698 W/m² 0.0 mm 0.000 mm 0.7 km/h
11:10 25.5 °C 16.1 °C 25.5 °C 56% 1013.1 hPa 705 W/m² 0.0 mm 0.000 mm 2.5 km/h
11:15 25.6 °C 15.6 °C 25.6 °C 54% 1013.0 hPa 716 W/m² 0.0 mm 0.000 mm 4.4 km/h
11:20 25.5 °C 15.2 °C 25.5 °C 53% 1013.0 hPa 726 W/m² 0.0 mm 0.000 mm 5.8 km/h
11:25 25.3 °C 16.2 °C 25.2 °C 57% 1012.9 hPa 739 W/m² 0.0 mm 0.000 mm 7.0 km/h
11:30 25.8 °C 14.9 °C 25.8 °C 51% 1012.9 hPa 741 W/m² 0.0 mm 0.000 mm 0.5 km/h
11:35 26.0 °C 15.1 °C 26.0 °C 51% 1012.8 hPa 751 W/m² 0.0 mm 0.000 mm 5.2 km/h
11:40 26.1 °C 15.8 °C 26.1 °C 53% 1012.9 hPa 758 W/m² 0.0 mm 0.000 mm 1.6 km/h
11:45 25.8 °C 15.8 °C 25.3 °C 54% 1012.8 hPa 773 W/m² 0.0 mm 0.000 mm 8.5 km/h
11:50 25.6 °C 13.8 °C 25.6 °C 48% 1012.7 hPa 790 W/m² 0.0 mm 0.000 mm 6.4 km/h
11:55 25.6 °C 14.4 °C 25.6 °C 50% 1012.6 hPa 807 W/m² 0.0 mm 0.000 mm 1.8 km/h
12:00 25.7 °C 14.5 °C 25.6 °C 50% 1012.6 hPa 815 W/m² 0.0 mm 0.508 mm 6.7 km/h
12:05 25.7 °C 14.8 °C 25.7 °C 51% 1012.6 hPa 824 W/m² 0.0 mm 0.000 mm 3.5 km/h
12:10 25.8 °C 14.6 °C 25.8 °C 50% 1012.5 hPa 840 W/m² 0.0 mm 0.000 mm 6.3 km/h
12:15 25.8 °C 13.6 °C 25.4 °C 47% 1012.4 hPa 851 W/m² 0.0 mm 0.000 mm 8.0 km/h
12:20 25.9 °C 14.7 °C 25.9 °C 50% 1012.4 hPa 877 W/m² 0.0 mm 0.000 mm 2.2 km/h
12:25 26.4 °C 14.2 °C 26.4 °C 47% 1012.3 hPa 888 W/m² 0.0 mm 0.000 mm 2.5 km/h
12:30 26.7 °C 14.8 °C 26.7 °C 48% 1012.3 hPa 899 W/m² 0.0 mm 0.000 mm 3.6 km/h
12:35 26.8 °C 14.5 °C 26.8 °C 47% 1012.2 hPa 925 W/m² 0.0 mm 0.000 mm 6.5 km/h
12:40 26.8 °C 14.9 °C 26.6 °C 48% 1012.2 hPa 943 W/m² 0.0 mm 0.000 mm 7.6 km/h
12:45 26.7 °C 14.8 °C 26.4 °C 48% 1012.1 hPa 976 W/m² 0.0 mm 0.000 mm 7.7 km/h
12:50 26.9 °C 14.9 °C 26.9 °C 48% 1012.0 hPa 970 W/m² 0.0 mm 0.000 mm 5.1 km/h
12:55 26.8 °C 14.2 °C 26.4 °C 46% 1012.0 hPa 1000 W/m² 0.0 mm 0.000 mm 8.7 km/h
13:00 26.1 °C 13.6 °C 25.3 °C 46% 1012.0 hPa 608 W/m² 0.0 mm 0.584 mm 10.4 km/h
13:05 25.9 °C 13.7 °C 25.4 °C 47% 1012.0 hPa 756 W/m² 0.0 mm 0.000 mm 8.9 km/h
13:10 25.7 °C 13.9 °C 25.1 °C 48% 1011.9 hPa 359 W/m² 0.0 mm 0.000 mm 9.1 km/h
13:15 25.6 °C 14.7 °C 25.6 °C 51% 1011.8 hPa 301 W/m² 0.0 mm 0.000 mm 4.6 km/h
13:20 25.7 °C 14.2 °C 25.7 °C 49% 1011.8 hPa 501 W/m² 0.0 mm 0.000 mm 2.6 km/h
13:25 26.0 °C 16.5 °C 26.0 °C 56% 1011.7 hPa 418 W/m² 0.0 mm 0.000 mm 0.5 km/h
13:30 26.0 °C 14.1 °C 26.0 °C 48% 1011.6 hPa 274 W/m² 0.0 mm 0.000 mm 5.2 km/h
13:35 26.2 °C 14.6 °C 26.2 °C 49% 1011.6 hPa 867 W/m² 0.0 mm 0.000 mm 3.3 km/h
13:40 26.7 °C 14.8 °C 26.7 °C 48% 1011.5 hPa 901 W/m² 0.0 mm 0.000 mm 5.8 km/h
13:45 27.2 °C 14.2 °C 27.2 °C 45% 1011.5 hPa 917 W/m² 0.0 mm 0.000 mm 5.5 km/h
13:50 27.4 °C 16.3 °C 27.4 °C 51% 1011.4 hPa 917 W/m² 0.0 mm 0.000 mm 3.1 km/h
13:55 27.7 °C 14.3 °C 27.7 °C 44% 1011.3 hPa 937 W/m² 0.0 mm 0.000 mm 4.8 km/h
14:00 27.9 °C 14.5 °C 27.9 °C 44% 1011.3 hPa 935 W/m² 0.0 mm 0.483 mm 6.6 km/h
14:05 28.0 °C 13.5 °C 27.7 °C 41% 1011.3 hPa 926 W/m² 0.0 mm 0.000 mm 8.2 km/h
14:10 27.9 °C 13.4 °C 27.9 °C 41% 1011.2 hPa 904 W/m² 0.0 mm 0.000 mm 4.5 km/h
14:15 28.0 °C 14.2 °C 28.0 °C 43% 1011.1 hPa 878 W/m² 0.0 mm 0.000 mm 4.5 km/h
14:20 28.1 °C 15.0 °C 28.1 °C 45% 1011.0 hPa 892 W/m² 0.0 mm 0.000 mm 2.9 km/h
14:25 27.8 °C 13.3 °C 27.5 °C 41% 1010.9 hPa 871 W/m² 0.0 mm 0.000 mm 8.5 km/h
14:30 27.4 °C 13.7 °C 27.4 °C 43% 1011.0 hPa 880 W/m² 0.0 mm 0.000 mm 6.2 km/h
14:35 27.5 °C 15.8 °C 27.5 °C 49% 1010.9 hPa 902 W/m² 0.0 mm 0.000 mm 2.7 km/h
14:40 27.8 °C 15.4 °C 27.8 °C 47% 1010.9 hPa 883 W/m² 0.0 mm 0.000 mm 1.4 km/h
14:45 27.8 °C 13.7 °C 27.3 °C 42% 1010.8 hPa 882 W/m² 0.0 mm 0.000 mm 10.0 km/h
14:50 27.6 °C 14.2 °C 27.4 °C 44% 1010.8 hPa 906 W/m² 0.0 mm 0.000 mm 7.4 km/h
14:55 27.4 °C 13.3 °C 27.4 °C 42% 1010.7 hPa 603 W/m² 0.0 mm 0.000 mm 6.7 km/h
15:00 27.2 °C 14.6 °C 27.1 °C 46% 1010.6 hPa 683 W/m² 0.0 mm 0.610 mm 7.2 km/h
15:05 27.2 °C 14.2 °C 27.0 °C 45% 1010.6 hPa 887 W/m² 0.0 mm 0.000 mm 7.5 km/h
15:10 27.3 °C 15.0 °C 27.3 °C 47% 1010.6 hPa 854 W/m² 0.0 mm 0.000 mm 4.5 km/h
15:15 27.3 °C 14.6 °C 27.3 °C 46% 1010.5 hPa 849 W/m² 0.0 mm 0.000 mm 5.7 km/h
15:20 27.7 °C 16.6 °C 27.7 °C 51% 1010.5 hPa 843 W/m² 0.0 mm 0.000 mm 3.8 km/h
15:25 27.9 °C 15.2 °C 27.9 °C 46% 1010.4 hPa 861 W/m² 0.0 mm 0.000 mm 5.8 km/h
15:30 28.3 °C 16.2 °C 28.3 °C 48% 1010.3 hPa 846 W/m² 0.0 mm 0.000 mm 2.1 km/h
15:35 28.7 °C 15.9 °C 28.7 °C 46% 1010.3 hPa 840 W/m² 0.0 mm 0.000 mm 2.8 km/h
15:40 28.9 °C 17.4 °C 28.9 °C 50% 1010.3 hPa 823 W/m² 0.0 mm 0.000 mm 2.3 km/h
15:45 29.1 °C 14.9 °C 29.1 °C 42% 1010.2 hPa 605 W/m² 0.0 mm 0.000 mm 2.9 km/h
15:50 29.0 °C 14.0 °C 29.0 °C 40% 1010.1 hPa 589 W/m² 0.0 mm 0.000 mm 3.6 km/h
15:55 29.1 °C 14.9 °C 29.1 °C 42% 1010.1 hPa 785 W/m² 0.0 mm 0.000 mm 5.5 km/h
16:00 29.2 °C 14.6 °C 29.2 °C 41% 1010.1 hPa 748 W/m² 0.0 mm 0.558 mm 2.6 km/h
16:05 29.3 °C 13.9 °C 29.3 °C 39% 1010.0 hPa 403 W/m² 0.0 mm 0.000 mm 5.6 km/h
16:10 29.3 °C 14.3 °C 29.3 °C 40% 1009.9 hPa 224 W/m² 0.0 mm 0.000 mm 2.6 km/h
16:15 29.4 °C 15.5 °C 29.4 °C 43% 1009.9 hPa 228 W/m² 0.0 mm 0.000 mm 2.0 km/h
16:20 29.3 °C 15.4 °C 29.3 °C 43% 1009.8 hPa 221 W/m² 0.0 mm 0.000 mm 6.6 km/h
16:25 29.1 °C 14.9 °C 28.5 °C 42% 1009.7 hPa 220 W/m² 0.0 mm 0.000 mm 11.6 km/h
16:30 29.2 °C 15.7 °C 29.2 °C 44% 1009.8 hPa 303 W/m² 0.0 mm 0.000 mm 3.8 km/h
16:35 28.8 °C 15.0 °C 28.7 °C 43% 1009.8 hPa 581 W/m² 0.0 mm 0.000 mm 6.9 km/h
16:40 28.4 °C 14.2 °C 28.4 °C 42% 1009.9 hPa 628 W/m² 0.0 mm 0.000 mm 5.8 km/h
16:45 28.2 °C 14.0 °C 28.2 °C 42% 1010.0 hPa 510 W/m² 0.0 mm 0.000 mm 6.3 km/h
16:50 27.8 °C 13.3 °C 27.8 °C 41% 1009.9 hPa 241 W/m² 0.0 mm 0.000 mm 5.8 km/h
16:55 27.7 °C 14.3 °C 27.7 °C 44% 1009.8 hPa 555 W/m² 0.0 mm 0.000 mm 6.3 km/h
17:00 27.6 °C 13.5 °C 27.5 °C 42% 1009.7 hPa 629 W/m² 0.0 mm 0.331 mm 7.1 km/h
17:05 27.6 °C 14.6 °C 27.5 °C 45% 1009.8 hPa 590 W/m² 0.0 mm 0.000 mm 7.2 km/h
17:10 27.5 °C 14.1 °C 27.5 °C 44% 1009.8 hPa 566 W/m² 0.0 mm 0.000 mm 6.1 km/h
17:15 27.5 °C 14.1 °C 27.5 °C 44% 1009.7 hPa 395 W/m² 0.0 mm 0.000 mm 5.1 km/h
17:20 27.4 °C 14.0 °C 27.4 °C 44% 1009.7 hPa 121 W/m² 0.0 mm 0.000 mm 3.4 km/h
17:25 27.3 °C 14.3 °C 27.3 °C 45% 1009.7 hPa 110 W/m² 0.0 mm 0.000 mm 1.3 km/h
17:30 27.2 °C 13.9 °C 27.2 °C 44% 1009.7 hPa 129 W/m² 0.0 mm 0.000 mm 1.6 km/h
17:35 26.9 °C 13.6 °C 26.8 °C 44% 1009.6 hPa 162 W/m² 0.0 mm 0.000 mm 7.0 km/h
17:40 26.8 °C 13.9 °C 26.8 °C 45% 1009.5 hPa 124 W/m² 0.0 mm 0.000 mm 6.2 km/h
17:45 26.7 °C 13.4 °C 26.7 °C 44% 1009.4 hPa 292 W/m² 0.0 mm 0.000 mm 5.9 km/h
17:50 26.7 °C 14.1 °C 26.7 °C 46% 1009.4 hPa 411 W/m² 0.0 mm 0.000 mm 3.0 km/h
17:55 26.9 °C 13.6 °C 26.9 °C 44% 1009.4 hPa 438 W/m² 0.0 mm 0.000 mm 2.9 km/h
18:00 26.9 °C 13.9 °C 26.8 °C 45% 1009.4 hPa 418 W/m² 0.0 mm 0.254 mm 6.9 km/h
18:05 27.0 °C 14.7 °C 27.0 °C 47% 1009.3 hPa 232 W/m² 0.0 mm 0.000 mm 0.1 km/h
18:10 27.1 °C 14.8 °C 27.1 °C 47% 1009.3 hPa 159 W/m² 0.0 mm 0.000 mm 0.1 km/h
18:15 27.1 °C 14.8 °C 27.1 °C 47% 1009.3 hPa 284 W/m² 0.0 mm 0.000 mm 0.5 km/h
18:20 27.2 °C 14.6 °C 27.2 °C 46% 1009.3 hPa 368 W/m² 0.0 mm 0.000 mm 0.4 km/h
18:25 27.2 °C 14.6 °C 27.2 °C 46% 1009.2 hPa 242 W/m² 0.0 mm 0.000 mm 1.3 km/h
18:30 27.2 °C 14.9 °C 27.2 °C 47% 1009.3 hPa 94 W/m² 0.0 mm 0.000 mm 0.4 km/h
18:35 27.0 °C 15.0 °C 27.0 °C 48% 1009.1 hPa 100 W/m² 0.0 mm 0.000 mm 0.2 km/h
18:40 26.8 °C 15.2 °C 26.8 °C 49% 1009.1 hPa 83 W/m² 0.0 mm 0.000 mm 0.2 km/h
18:45 26.6 °C 15.0 °C 26.6 °C 49% 1009.1 hPa 80 W/m² 0.0 mm 0.000 mm 0.1 km/h
18:50 26.4 °C 15.1 °C 26.4 °C 50% 1009.0 hPa 77 W/m² 0.0 mm 0.000 mm 0.0 km/h
18:55 26.3 °C 15.3 °C 26.3 °C 51% 1008.9 hPa 73 W/m² 0.0 mm 0.000 mm 0.0 km/h
19:00 26.2 °C 15.2 °C 26.2 °C 51% 1008.9 hPa 69 W/m² 0.0 mm 0.101 mm 0.1 km/h
19:05 26.1 °C 15.2 °C 26.1 °C 51% 1008.8 hPa 66 W/m² 0.0 mm 0.000 mm 0.3 km/h
19:10 25.9 °C 15.3 °C 25.9 °C 52% 1008.8 hPa 64 W/m² 0.0 mm 0.000 mm 0.2 km/h
19:15 25.8 °C 14.9 °C 25.8 °C 51% 1008.8 hPa 62 W/m² 0.0 mm 0.000 mm 0.0 km/h
19:20 25.6 °C 15.0 °C 25.6 °C 52% 1008.8 hPa 62 W/m² 0.0 mm 0.000 mm 0.0 km/h
19:25 25.5 °C 14.9 °C 25.5 °C 52% 1008.8 hPa 61 W/m² 0.0 mm 0.000 mm 0.1 km/h
19:30 25.4 °C 14.8 °C 25.4 °C 52% 1008.8 hPa 59 W/m² 0.0 mm 0.000 mm 0.0 km/h
19:35 25.3 °C 15.0 °C 25.3 °C 53% 1008.7 hPa 55 W/m² 0.0 mm 0.000 mm 0.0 km/h
19:40 25.3 °C 15.0 °C 25.3 °C 53% 1008.7 hPa 53 W/m² 0.0 mm 0.000 mm 0.0 km/h
19:45 25.2 °C 15.2 °C 25.2 °C 54% 1008.8 hPa 49 W/m² 0.0 mm 0.000 mm 0.1 km/h
19:50 25.1 °C 15.1 °C 25.1 °C 54% 1008.8 hPa 48 W/m² 0.0 mm 0.000 mm 0.0 km/h
19:55 24.9 °C 14.9 °C 24.9 °C 54% 1008.7 hPa 46 W/m² 0.0 mm 0.000 mm 0.1 km/h